Terminal Aerodrome Forecast
Issued by NWS

Home | Current Version | Previous Version | Text Only | Print | Product List | Glossary On
Versions: 1 2 3 4 5 6 7 8 9 10 11
968
FTUS46 KLOX 062332
TAFBUR
TAF
KBUR 062332Z 0700/0724 17006KT P6SM SKC
     FM070300 34005KT P6SM SKC
     FM070700 VRB03KT P6SM SKC
     FM072000 10007KT P6SM SKC=

USA.gov is the U.S. government's official web portal to all federal, state and local government web resources and services.